sensor_id;sensor_type;location;lat;lon;timestamp;P1;durP1;ratioP1;P2;durP2;ratioP2
11394;SDS011;5753;54.402;10.220;2023-04-16T00:00:53;23.27;;;15.30;;
11394;SDS011;5753;54.402;10.220;2023-04-16T00:03:19;21.75;;;16.48;;
11394;SDS011;5753;54.402;10.220;2023-04-16T00:05:45;20.65;;;14.55;;
11394;SDS011;5753;54.402;10.220;2023-04-16T00:08:11;22.05;;;15.13;;
11394;SDS011;5753;54.402;10.220;2023-04-16T00:10:38;22.60;;;16.67;;
11394;SDS011;5753;54.402;10.220;2023-04-16T00:13:04;19.00;;;13.30;;
11394;SDS011;5753;54.402;10.220;2023-04-16T00:15:30;20.50;;;16.90;;
11394;SDS011;5753;54.402;10.220;2023-04-16T00:17:56;21.33;;;17.73;;
11394;SDS011;5753;54.402;10.220;2023-04-16T00:20:23;21.60;;;14.98;;
11394;SDS011;5753;54.402;10.220;2023-04-16T00:22:49;17.45;;;15.35;;
11394;SDS011;5753;54.402;10.220;2023-04-16T00:25:16;19.50;;;14.75;;
11394;SDS011;5753;54.402;10.220;2023-04-16T00:27:42;26.95;;;17.80;;
11394;SDS011;5753;54.402;10.220;2023-04-16T00:30:08;19.90;;;14.05;;
11394;SDS011;5753;54.402;10.220;2023-04-16T00:32:34;26.20;;;16.88;;
11394;SDS011;5753;54.402;10.220;2023-04-16T00:35:01;24.60;;;17.67;;
11394;SDS011;5753;54.402;10.220;2023-04-16T00:37:27;14.98;;;12.80;;
11394;SDS011;5753;54.402;10.220;2023-04-16T00:39:54;23.00;;;17.10;;
11394;SDS011;5753;54.402;10.220;2023-04-16T00:42:20;22.13;;;16.75;;
11394;SDS011;5753;54.402;10.220;2023-04-16T00:44:46;30.88;;;15.32;;
11394;SDS011;5753;54.402;10.220;2023-04-16T00:47:12;18.48;;;16.35;;
11394;SDS011;5753;54.402;10.220;2023-04-16T00:49:39;24.02;;;16.40;;
11394;SDS011;5753;54.402;10.220;2023-04-16T00:52:05;25.92;;;14.77;;
11394;SDS011;5753;54.402;10.220;2023-04-16T00:54:31;18.23;;;13.07;;
11394;SDS011;5753;54.402;10.220;2023-04-16T00:56:58;32.60;;;16.38;;
11394;SDS011;5753;54.402;10.220;2023-04-16T00:59:25;20.55;;;14.23;;
11394;SDS011;5753;54.402;10.220;2023-04-16T01:01:52;26.00;;;15.90;;
11394;SDS011;5753;54.402;10.220;2023-04-16T01:04:19;19.50;;;17.48;;
11394;SDS011;5753;54.402;10.220;2023-04-16T01:06:45;24.95;;;20.02;;
11394;SDS011;5753;54.402;10.220;2023-04-16T01:09:11;18.60;;;14.13;;
11394;SDS011;5753;54.402;10.220;2023-04-16T01:11:37;21.77;;;16.60;;
11394;SDS011;5753;54.402;10.220;2023-04-16T01:14:04;21.35;;;15.93;;
11394;SDS011;5753;54.402;10.220;2023-04-16T01:16:31;26.23;;;15.65;;
11394;SDS011;5753;54.402;10.220;2023-04-16T01:18:57;35.53;;;20.77;;
11394;SDS011;5753;54.402;10.220;2023-04-16T01:21:23;29.00;;;20.15;;
11394;SDS011;5753;54.402;10.220;2023-04-16T01:23:50;26.67;;;16.50;;
11394;SDS011;5753;54.402;10.220;2023-04-16T01:26:16;24.67;;;16.30;;
11394;SDS011;5753;54.402;10.220;2023-04-16T01:28:42;21.85;;;15.38;;
11394;SDS011;5753;54.402;10.220;2023-04-16T01:31:08;26.65;;;18.77;;
11394;SDS011;5753;54.402;10.220;2023-04-16T01:33:35;22.58;;;16.00;;
11394;SDS011;5753;54.402;10.220;2023-04-16T01:36:01;22.20;;;16.45;;
11394;SDS011;5753;54.402;10.220;2023-04-16T01:38:27;23.90;;;21.35;;
11394;SDS011;5753;54.402;10.220;2023-04-16T01:40:56;24.58;;;17.35;;
11394;SDS011;5753;54.402;10.220;2023-04-16T01:43:23;35.90;;;21.27;;
11394;SDS011;5753;54.402;10.220;2023-04-16T01:45:50;24.95;;;18.77;;
11394;SDS011;5753;54.402;10.220;2023-04-16T01:48:35;23.40;;;17.35;;
11394;SDS011;5753;54.402;10.220;2023-04-16T01:51:01;27.13;;;18.35;;
11394;SDS011;5753;54.402;10.220;2023-04-16T01:53:28;27.42;;;19.15;;
11394;SDS011;5753;54.402;10.220;2023-04-16T01:55:55;26.58;;;17.30;;
11394;SDS011;5753;54.402;10.220;2023-04-16T01:58:21;20.52;;;15.32;;
11394;SDS011;5753;54.402;10.220;2023-04-16T02:00:47;22.83;;;17.55;;
11394;SDS011;5753;54.402;10.220;2023-04-16T02:03:14;33.65;;;20.48;;
11394;SDS011;5753;54.402;10.220;2023-04-16T02:05:41;23.70;;;18.02;;
11394;SDS011;5753;54.402;10.220;2023-04-16T02:08:07;23.33;;;18.42;;
11394;SDS011;5753;54.402;10.220;2023-04-16T02:10:34;27.00;;;18.50;;
11394;SDS011;5753;54.402;10.220;2023-04-16T02:13:00;19.45;;;17.05;;
11394;SDS011;5753;54.402;10.220;2023-04-16T02:15:26;23.83;;;16.75;;
11394;SDS011;5753;54.402;10.220;2023-04-16T02:17:52;26.88;;;16.33;;
11394;SDS011;5753;54.402;10.220;2023-04-16T02:20:20;23.38;;;18.65;;
11394;SDS011;5753;54.402;10.220;2023-04-16T02:22:47;23.67;;;16.52;;
11394;SDS011;5753;54.402;10.220;2023-04-16T02:25:13;24.23;;;15.13;;
11394;SDS011;5753;54.402;10.220;2023-04-16T02:27:39;29.50;;;18.85;;
11394;SDS011;5753;54.402;10.220;2023-04-16T02:30:06;19.92;;;15.10;;
11394;SDS011;5753;54.402;10.220;2023-04-16T02:32:32;22.33;;;16.25;;
11394;SDS011;5753;54.402;10.220;2023-04-16T02:34:59;30.90;;;16.75;;
11394;SDS011;5753;54.402;10.220;2023-04-16T02:37:27;22.88;;;15.88;;
11394;SDS011;5753;54.402;10.220;2023-04-16T02:39:54;24.00;;;17.92;;
11394;SDS011;5753;54.402;10.220;2023-04-16T02:42:21;21.38;;;15.75;;
11394;SDS011;5753;54.402;10.220;2023-04-16T02:44:47;23.25;;;16.88;;
11394;SDS011;5753;54.402;10.220;2023-04-16T02:47:14;24.90;;;18.40;;
11394;SDS011;5753;54.402;10.220;2023-04-16T02:49:40;24.80;;;13.85;;
11394;SDS011;5753;54.402;10.220;2023-04-16T02:52:06;25.00;;;16.42;;
11394;SDS011;5753;54.402;10.220;2023-04-16T02:54:32;27.20;;;16.20;;
11394;SDS011;5753;54.402;10.220;2023-04-16T02:56:58;25.92;;;16.45;;
11394;SDS011;5753;54.402;10.220;2023-04-16T02:59:28;24.20;;;13.38;;
11394;SDS011;5753;54.402;10.220;2023-04-16T03:01:54;20.75;;;15.80;;
11394;SDS011;5753;54.402;10.220;2023-04-16T03:04:20;22.88;;;16.77;;
11394;SDS011;5753;54.402;10.220;2023-04-16T03:06:46;23.38;;;16.65;;
11394;SDS011;5753;54.402;10.220;2023-04-16T03:09:12;19.13;;;14.25;;
11394;SDS011;5753;54.402;10.220;2023-04-16T03:11:39;25.23;;;16.50;;
11394;SDS011;5753;54.402;10.220;2023-04-16T03:14:05;21.15;;;15.55;;
11394;SDS011;5753;54.402;10.220;2023-04-16T03:16:31;18.17;;;14.15;;
11394;SDS011;5753;54.402;10.220;2023-04-16T03:18:57;21.88;;;18.45;;
11394;SDS011;5753;54.402;10.220;2023-04-16T03:21:23;22.35;;;16.33;;
11394;SDS011;5753;54.402;10.220;2023-04-16T03:23:51;17.40;;;14.95;;
11394;SDS011;5753;54.402;10.220;2023-04-16T03:26:19;22.35;;;16.65;;
11394;SDS011;5753;54.402;10.220;2023-04-16T03:28:46;24.02;;;16.45;;
11394;SDS011;5753;54.402;10.220;2023-04-16T03:31:12;23.23;;;16.20;;
11394;SDS011;5753;54.402;10.220;2023-04-16T03:33:38;22.77;;;15.73;;
11394;SDS011;5753;54.402;10.220;2023-04-16T03:36:05;21.15;;;15.63;;
11394;SDS011;5753;54.402;10.220;2023-04-16T03:38:31;18.10;;;14.55;;
11394;SDS011;5753;54.402;10.220;2023-04-16T03:40:57;18.95;;;15.10;;
11394;SDS011;5753;54.402;10.220;2023-04-16T03:43:23;22.55;;;15.40;;
11394;SDS011;5753;54.402;10.220;2023-04-16T03:45:50;28.00;;;16.85;;
11394;SDS011;5753;54.402;10.220;2023-04-16T03:48:16;20.63;;;15.25;;
11394;SDS011;5753;54.402;10.220;2023-04-16T03:50:45;20.95;;;16.77;;
11394;SDS011;5753;54.402;10.220;2023-04-16T03:53:12;23.05;;;16.15;;
11394;SDS011;5753;54.402;10.220;2023-04-16T03:55:39;22.05;;;14.80;;
11394;SDS011;5753;54.402;10.220;2023-04-16T03:58:08;21.65;;;14.82;;
11394;SDS011;5753;54.402;10.220;2023-04-16T04:00:34;24.02;;;14.52;;
11394;SDS011;5753;54.402;10.220;2023-04-16T04:03:00;20.00;;;14.40;;
11394;SDS011;5753;54.402;10.220;2023-04-16T04:05:27;25.65;;;15.65;;
11394;SDS011;5753;54.402;10.220;2023-04-16T04:07:53;21.35;;;18.95;;
11394;SDS011;5753;54.402;10.220;2023-04-16T04:10:19;16.27;;;13.63;;
11394;SDS011;5753;54.402;10.220;2023-04-16T04:12:45;17.73;;;15.55;;
11394;SDS011;5753;54.402;10.220;2023-04-16T04:15:11;16.05;;;13.20;;
11394;SDS011;5753;54.402;10.220;2023-04-16T04:17:37;22.33;;;14.95;;
11394;SDS011;5753;54.402;10.220;2023-04-16T04:20:04;16.20;;;14.13;;
11394;SDS011;5753;54.402;10.220;2023-04-16T04:22:30;26.52;;;16.23;;
11394;SDS011;5753;54.402;10.220;2023-04-16T04:24:57;23.27;;;14.95;;
11394;SDS011;5753;54.402;10.220;2023-04-16T04:27:23;21.42;;;16.33;;
11394;SDS011;5753;54.402;10.220;2023-04-16T04:29:49;22.23;;;16.70;;
11394;SDS011;5753;54.402;10.220;2023-04-16T04:32:15;22.30;;;15.85;;
11394;SDS011;5753;54.402;10.220;2023-04-16T04:34:41;21.15;;;15.52;;
11394;SDS011;5753;54.402;10.220;2023-04-16T04:37:07;24.17;;;17.75;;
11394;SDS011;5753;54.402;10.220;2023-04-16T04:39:34;23.15;;;16.20;;
11394;SDS011;5753;54.402;10.220;2023-04-16T04:42:00;17.00;;;13.70;;
11394;SDS011;5753;54.402;10.220;2023-04-16T04:44:27;18.38;;;15.82;;
11394;SDS011;5753;54.402;10.220;2023-04-16T04:46:53;20.38;;;13.63;;
11394;SDS011;5753;54.402;10.220;2023-04-16T04:49:19;20.92;;;16.13;;
11394;SDS011;5753;54.402;10.220;2023-04-16T04:51:45;17.02;;;14.23;;
11394;SDS011;5753;54.402;10.220;2023-04-16T04:54:12;25.92;;;18.05;;
11394;SDS011;5753;54.402;10.220;2023-04-16T04:56:38;19.52;;;14.27;;
11394;SDS011;5753;54.402;10.220;2023-04-16T04:59:04;24.60;;;15.55;;
11394;SDS011;5753;54.402;10.220;2023-04-16T05:01:30;16.45;;;14.70;;
11394;SDS011;5753;54.402;10.220;2023-04-16T05:03:56;24.48;;;17.67;;
11394;SDS011;5753;54.402;10.220;2023-04-16T05:06:23;22.92;;;16.77;;
11394;SDS011;5753;54.402;10.220;2023-04-16T05:08:49;20.85;;;14.32;;
11394;SDS011;5753;54.402;10.220;2023-04-16T05:11:15;23.42;;;16.23;;
11394;SDS011;5753;54.402;10.220;2023-04-16T05:13:41;19.77;;;16.02;;
11394;SDS011;5753;54.402;10.220;2023-04-16T05:16:07;21.23;;;15.48;;
11394;SDS011;5753;54.402;10.220;2023-04-16T05:18:33;20.15;;;13.07;;
11394;SDS011;5753;54.402;10.220;2023-04-16T05:20:59;22.33;;;13.65;;
11394;SDS011;5753;54.402;10.220;2023-04-16T05:23:26;17.33;;;12.68;;
11394;SDS011;5753;54.402;10.220;2023-04-16T05:25:52;21.90;;;16.73;;
11394;SDS011;5753;54.402;10.220;2023-04-16T05:28:18;20.17;;;13.18;;
11394;SDS011;5753;54.402;10.220;2023-04-16T05:30:44;14.75;;;12.93;;
11394;SDS011;5753;54.402;10.220;2023-04-16T05:33:10;20.58;;;13.13;;
11394;SDS011;5753;54.402;10.220;2023-04-16T05:35:37;16.98;;;14.68;;
11394;SDS011;5753;54.402;10.220;2023-04-16T05:38:03;24.08;;;16.40;;
11394;SDS011;5753;54.402;10.220;2023-04-16T05:40:30;20.15;;;15.20;;
11394;SDS011;5753;54.402;10.220;2023-04-16T05:42:56;21.38;;;13.70;;
11394;SDS011;5753;54.402;10.220;2023-04-16T05:45:22;18.13;;;14.30;;
11394;SDS011;5753;54.402;10.220;2023-04-16T05:47:48;21.58;;;13.15;;
11394;SDS011;5753;54.402;10.220;2023-04-16T05:50:14;23.25;;;15.35;;
11394;SDS011;5753;54.402;10.220;2023-04-16T05:52:41;18.95;;;13.38;;
11394;SDS011;5753;54.402;10.220;2023-04-16T05:55:07;18.15;;;11.52;;
11394;SDS011;5753;54.402;10.220;2023-04-16T05:57:33;22.70;;;16.80;;
11394;SDS011;5753;54.402;10.220;2023-04-16T06:00:00;25.13;;;15.45;;
11394;SDS011;5753;54.402;10.220;2023-04-16T06:02:26;24.10;;;14.63;;
11394;SDS011;5753;54.402;10.220;2023-04-16T06:04:54;29.33;;;14.15;;
11394;SDS011;5753;54.402;10.220;2023-04-16T06:07:20;19.40;;;16.58;;
11394;SDS011;5753;54.402;10.220;2023-04-16T06:09:46;16.45;;;13.38;;
11394;SDS011;5753;54.402;10.220;2023-04-16T06:12:12;18.55;;;15.48;;
11394;SDS011;5753;54.402;10.220;2023-04-16T06:14:39;24.65;;;16.90;;
11394;SDS011;5753;54.402;10.220;2023-04-16T06:17:05;22.48;;;16.35;;
11394;SDS011;5753;54.402;10.220;2023-04-16T06:19:31;22.42;;;13.00;;
11394;SDS011;5753;54.402;10.220;2023-04-16T06:21:57;20.73;;;15.43;;
11394;SDS011;5753;54.402;10.220;2023-04-16T06:24:23;17.85;;;13.45;;
11394;SDS011;5753;54.402;10.220;2023-04-16T06:26:49;33.10;;;17.85;;
11394;SDS011;5753;54.402;10.220;2023-04-16T06:29:16;21.40;;;16.08;;
11394;SDS011;5753;54.402;10.220;2023-04-16T06:31:42;22.38;;;15.27;;
11394;SDS011;5753;54.402;10.220;2023-04-16T06:34:08;46.88;;;16.20;;
11394;SDS011;5753;54.402;10.220;2023-04-16T06:36:34;27.73;;;18.10;;
11394;SDS011;5753;54.402;10.220;2023-04-16T06:39:01;20.85;;;13.18;;
11394;SDS011;5753;54.402;10.220;2023-04-16T06:41:27;18.80;;;16.60;;
11394;SDS011;5753;54.402;10.220;2023-04-16T06:43:54;20.30;;;16.05;;
11394;SDS011;5753;54.402;10.220;2023-04-16T06:46:20;25.05;;;16.60;;
11394;SDS011;5753;54.402;10.220;2023-04-16T06:48:46;22.63;;;18.80;;
11394;SDS011;5753;54.402;10.220;2023-04-16T06:51:12;20.90;;;15.77;;
11394;SDS011;5753;54.402;10.220;2023-04-16T06:53:39;25.05;;;16.90;;
11394;SDS011;5753;54.402;10.220;2023-04-16T06:56:06;20.10;;;14.50;;
11394;SDS011;5753;54.402;10.220;2023-04-16T06:58:32;25.58;;;18.13;;
11394;SDS011;5753;54.402;10.220;2023-04-16T07:00:58;20.17;;;16.98;;
11394;SDS011;5753;54.402;10.220;2023-04-16T07:03:26;18.60;;;15.73;;
11394;SDS011;5753;54.402;10.220;2023-04-16T07:05:52;25.02;;;16.30;;
11394;SDS011;5753;54.402;10.220;2023-04-16T07:08:18;28.55;;;17.98;;
11394;SDS011;5753;54.402;10.220;2023-04-16T07:10:45;22.48;;;17.85;;
11394;SDS011;5753;54.402;10.220;2023-04-16T07:13:11;19.27;;;14.82;;
11394;SDS011;5753;54.402;10.220;2023-04-16T07:15:37;22.00;;;15.90;;
11394;SDS011;5753;54.402;10.220;2023-04-16T07:18:03;19.85;;;16.10;;
11394;SDS011;5753;54.402;10.220;2023-04-16T07:20:29;25.63;;;18.08;;
11394;SDS011;5753;54.402;10.220;2023-04-16T07:22:55;23.95;;;15.02;;
11394;SDS011;5753;54.402;10.220;2023-04-16T07:25:23;22.40;;;17.17;;
11394;SDS011;5753;54.402;10.220;2023-04-16T07:27:50;20.27;;;15.52;;
11394;SDS011;5753;54.402;10.220;2023-04-16T07:30:17;19.23;;;15.00;;
11394;SDS011;5753;54.402;10.220;2023-04-16T07:32:43;25.50;;;14.57;;
11394;SDS011;5753;54.402;10.220;2023-04-16T07:35:09;26.17;;;15.43;;
11394;SDS011;5753;54.402;10.220;2023-04-16T07:37:35;22.85;;;18.60;;
11394;SDS011;5753;54.402;10.220;2023-04-16T07:40:02;21.98;;;15.88;;
11394;SDS011;5753;54.402;10.220;2023-04-16T07:42:28;21.60;;;16.63;;
11394;SDS011;5753;54.402;10.220;2023-04-16T07:44:54;23.33;;;17.30;;
11394;SDS011;5753;54.402;10.220;2023-04-16T07:47:20;20.77;;;16.52;;
11394;SDS011;5753;54.402;10.220;2023-04-16T07:49:47;24.02;;;17.35;;
11394;SDS011;5753;54.402;10.220;2023-04-16T07:52:14;20.30;;;17.13;;
11394;SDS011;5753;54.402;10.220;2023-04-16T07:54:40;19.48;;;17.30;;
11394;SDS011;5753;54.402;10.220;2023-04-16T07:57:06;26.25;;;17.75;;
11394;SDS011;5753;54.402;10.220;2023-04-16T07:59:33;20.67;;;17.15;;
11394;SDS011;5753;54.402;10.220;2023-04-16T08:01:59;23.10;;;17.13;;
11394;SDS011;5753;54.402;10.220;2023-04-16T08:04:25;28.00;;;18.40;;
11394;SDS011;5753;54.402;10.220;2023-04-16T08:06:52;22.35;;;19.98;;
11394;SDS011;5753;54.402;10.220;2023-04-16T08:09:18;32.30;;;18.52;;
11394;SDS011;5753;54.402;10.220;2023-04-16T08:11:46;17.73;;;14.93;;
11394;SDS011;5753;54.402;10.220;2023-04-16T08:14:14;20.73;;;15.45;;
11394;SDS011;5753;54.402;10.220;2023-04-16T08:16:41;24.10;;;18.17;;
11394;SDS011;5753;54.402;10.220;2023-04-16T08:19:07;18.27;;;15.68;;
11394;SDS011;5753;54.402;10.220;2023-04-16T08:21:33;27.27;;;20.08;;
11394;SDS011;5753;54.402;10.220;2023-04-16T08:23:59;27.63;;;16.38;;
11394;SDS011;5753;54.402;10.220;2023-04-16T08:26:25;25.85;;;17.17;;
11394;SDS011;5753;54.402;10.220;2023-04-16T08:28:51;22.60;;;15.43;;
11394;SDS011;5753;54.402;10.220;2023-04-16T08:31:18;23.92;;;17.70;;
11394;SDS011;5753;54.402;10.220;2023-04-16T08:33:44;24.05;;;17.05;;
11394;SDS011;5753;54.402;10.220;2023-04-16T08:36:10;23.17;;;18.00;;
11394;SDS011;5753;54.402;10.220;2023-04-16T08:38:37;22.98;;;15.60;;
11394;SDS011;5753;54.402;10.220;2023-04-16T08:41:04;20.55;;;15.63;;
11394;SDS011;5753;54.402;10.220;2023-04-16T08:43:33;19.30;;;13.38;;
11394;SDS011;5753;54.402;10.220;2023-04-16T08:46:02;17.63;;;14.02;;
11394;SDS011;5753;54.402;10.220;2023-04-16T08:48:31;21.23;;;18.40;;
11394;SDS011;5753;54.402;10.220;2023-04-16T08:50:59;24.95;;;15.68;;
11394;SDS011;5753;54.402;10.220;2023-04-16T08:53:28;24.85;;;17.50;;
11394;SDS011;5753;54.402;10.220;2023-04-16T08:56:06;21.35;;;13.80;;
11394;SDS011;5753;54.402;10.220;2023-04-16T08:58:36;21.67;;;15.40;;
11394;SDS011;5753;54.402;10.220;2023-04-16T09:01:03;20.77;;;15.27;;
11394;SDS011;5753;54.402;10.220;2023-04-16T09:03:30;22.77;;;15.65;;
11394;SDS011;5753;54.402;10.220;2023-04-16T09:05:58;20.08;;;15.52;;
11394;SDS011;5753;54.402;10.220;2023-04-16T09:08:25;16.90;;;14.20;;
11394;SDS011;5753;54.402;10.220;2023-04-16T09:10:51;17.77;;;14.05;;
11394;SDS011;5753;54.402;10.220;2023-04-16T09:13:19;19.80;;;13.27;;
11394;SDS011;5753;54.402;10.220;2023-04-16T09:15:47;19.55;;;14.30;;
11394;SDS011;5753;54.402;10.220;2023-04-16T09:18:21;18.70;;;13.32;;
11394;SDS011;5753;54.402;10.220;2023-04-16T09:20:48;17.27;;;14.93;;
11394;SDS011;5753;54.402;10.220;2023-04-16T09:23:15;20.70;;;15.30;;
11394;SDS011;5753;54.402;10.220;2023-04-16T09:25:42;21.33;;;17.23;;
11394;SDS011;5753;54.402;10.220;2023-04-16T09:28:08;18.38;;;16.23;;
11394;SDS011;5753;54.402;10.220;2023-04-16T09:30:35;16.80;;;14.32;;
11394;SDS011;5753;54.402;10.220;2023-04-16T09:33:12;21.67;;;17.02;;
11394;SDS011;5753;54.402;10.220;2023-04-16T09:35:49;18.60;;;13.57;;
11394;SDS011;5753;54.402;10.220;2023-04-16T09:38:17;28.02;;;19.63;;
11394;SDS011;5753;54.402;10.220;2023-04-16T09:40:44;27.85;;;16.80;;
11394;SDS011;5753;54.402;10.220;2023-04-16T09:45:48;18.98;;;15.15;;
11394;SDS011;5753;54.402;10.220;2023-04-16T09:48:16;20.85;;;16.05;;
11394;SDS011;5753;54.402;10.220;2023-04-16T09:50:58;20.17;;;16.30;;
11394;SDS011;5753;54.402;10.220;2023-04-16T09:53:25;19.13;;;15.95;;
11394;SDS011;5753;54.402;10.220;2023-04-16T09:56:00;23.13;;;17.20;;
11394;SDS011;5753;54.402;10.220;2023-04-16T09:58:27;19.00;;;16.45;;
11394;SDS011;5753;54.402;10.220;2023-04-16T10:01:00;23.95;;;16.30;;
11394;SDS011;5753;54.402;10.220;2023-04-16T10:03:28;22.90;;;16.05;;
11394;SDS011;5753;54.402;10.220;2023-04-16T10:11:08;18.58;;;16.58;;
11394;SDS011;5753;54.402;10.220;2023-04-16T10:13:35;16.83;;;14.27;;
11394;SDS011;5753;54.402;10.220;2023-04-16T10:16:01;17.60;;;15.05;;
11394;SDS011;5753;54.402;10.220;2023-04-16T10:18:28;20.80;;;14.02;;
11394;SDS011;5753;54.402;10.220;2023-04-16T10:20:55;20.75;;;14.55;;
11394;SDS011;5753;54.402;10.220;2023-04-16T10:23:22;21.30;;;12.68;;
11394;SDS011;5753;54.402;10.220;2023-04-16T10:25:49;19.10;;;12.63;;
11394;SDS011;5753;54.402;10.220;2023-04-16T10:28:16;19.15;;;14.57;;
11394;SDS011;5753;54.402;10.220;2023-04-16T10:30:43;18.08;;;15.13;;
11394;SDS011;5753;54.402;10.220;2023-04-16T10:33:18;22.38;;;14.13;;
11394;SDS011;5753;54.402;10.220;2023-04-16T10:35:51;20.98;;;13.73;;
11394;SDS011;5753;54.402;10.220;2023-04-16T10:38:47;18.45;;;13.25;;
11394;SDS011;5753;54.402;10.220;2023-04-16T10:41:16;14.10;;;12.45;;
11394;SDS011;5753;54.402;10.220;2023-04-16T10:43:45;18.42;;;13.35;;
11394;SDS011;5753;54.402;10.220;2023-04-16T10:48:45;18.92;;;14.30;;
11394;SDS011;5753;54.402;10.220;2023-04-16T10:54:18;21.70;;;15.13;;
11394;SDS011;5753;54.402;10.220;2023-04-16T10:56:53;17.50;;;13.00;;
11394;SDS011;5753;54.402;10.220;2023-04-16T10:59:22;21.42;;;13.93;;
11394;SDS011;5753;54.402;10.220;2023-04-16T11:01:53;19.02;;;14.38;;
11394;SDS011;5753;54.402;10.220;2023-04-16T11:12:10;17.00;;;10.63;;
11394;SDS011;5753;54.402;10.220;2023-04-16T11:14:51;19.95;;;11.70;;
11394;SDS011;5753;54.402;10.220;2023-04-16T11:17:19;11.48;;;10.27;;
11394;SDS011;5753;54.402;10.220;2023-04-16T11:19:46;15.23;;;10.25;;
11394;SDS011;5753;54.402;10.220;2023-04-16T11:22:12;27.63;;;12.77;;
11394;SDS011;5753;54.402;10.220;2023-04-16T11:24:42;19.15;;;12.07;;
11394;SDS011;5753;54.402;10.220;2023-04-16T11:27:10;19.42;;;12.25;;
11394;SDS011;5753;54.402;10.220;2023-04-16T11:29:40;17.90;;;11.68;;
11394;SDS011;5753;54.402;10.220;2023-04-16T11:32:06;12.63;;;11.25;;
11394;SDS011;5753;54.402;10.220;2023-04-16T11:34:32;16.98;;;11.00;;
11394;SDS011;5753;54.402;10.220;2023-04-16T11:36:59;14.95;;;12.05;;
11394;SDS011;5753;54.402;10.220;2023-04-16T11:39:25;17.92;;;11.20;;
11394;SDS011;5753;54.402;10.220;2023-04-16T11:41:51;14.20;;;12.13;;
11394;SDS011;5753;54.402;10.220;2023-04-16T11:44:18;16.08;;;11.18;;
11394;SDS011;5753;54.402;10.220;2023-04-16T11:46:54;14.52;;;11.77;;
11394;SDS011;5753;54.402;10.220;2023-04-16T11:49:27;17.52;;;12.70;;
11394;SDS011;5753;54.402;10.220;2023-04-16T11:51:56;14.95;;;12.43;;
11394;SDS011;5753;54.402;10.220;2023-04-16T11:54:23;17.65;;;11.32;;
11394;SDS011;5753;54.402;10.220;2023-04-16T11:56:50;16.88;;;13.85;;
11394;SDS011;5753;54.402;10.220;2023-04-16T11:59:20;20.13;;;11.45;;
11394;SDS011;5753;54.402;10.220;2023-04-16T12:04:15;13.18;;;11.60;;
11394;SDS011;5753;54.402;10.220;2023-04-16T12:09:34;13.68;;;10.93;;
11394;SDS011;5753;54.402;10.220;2023-04-16T12:12:02;15.85;;;11.63;;
11394;SDS011;5753;54.402;10.220;2023-04-16T12:14:29;18.23;;;12.68;;
11394;SDS011;5753;54.402;10.220;2023-04-16T12:17:01;16.27;;;13.23;;
11394;SDS011;5753;54.402;10.220;2023-04-16T12:19:57;14.63;;;11.52;;
11394;SDS011;5753;54.402;10.220;2023-04-16T12:22:28;17.98;;;11.27;;
11394;SDS011;5753;54.402;10.220;2023-04-16T12:25:03;17.88;;;12.38;;
11394;SDS011;5753;54.402;10.220;2023-04-16T12:30:06;17.17;;;11.15;;
11394;SDS011;5753;54.402;10.220;2023-04-16T12:32:33;13.02;;;10.60;;
11394;SDS011;5753;54.402;10.220;2023-04-16T12:34:59;20.50;;;11.88;;
11394;SDS011;5753;54.402;10.220;2023-04-16T12:37:25;15.90;;;11.15;;
11394;SDS011;5753;54.402;10.220;2023-04-16T12:39:55;14.43;;;10.10;;
11394;SDS011;5753;54.402;10.220;2023-04-16T12:42:22;17.50;;;10.40;;
11394;SDS011;5753;54.402;10.220;2023-04-16T12:44:48;12.70;;;9.23;;
11394;SDS011;5753;54.402;10.220;2023-04-16T12:47:15;24.17;;;15.85;;
11394;SDS011;5753;54.402;10.220;2023-04-16T12:49:41;15.45;;;11.00;;
11394;SDS011;5753;54.402;10.220;2023-04-16T12:52:12;11.73;;;10.10;;
11394;SDS011;5753;54.402;10.220;2023-04-16T12:54:38;15.70;;;11.85;;
11394;SDS011;5753;54.402;10.220;2023-04-16T12:57:05;18.00;;;11.48;;
11394;SDS011;5753;54.402;10.220;2023-04-16T12:59:31;14.77;;;11.48;;
11394;SDS011;5753;54.402;10.220;2023-04-16T13:01:59;14.18;;;11.57;;
11394;SDS011;5753;54.402;10.220;2023-04-16T13:04:29;14.23;;;11.95;;
11394;SDS011;5753;54.402;10.220;2023-04-16T13:06:55;12.07;;;10.57;;
11394;SDS011;5753;54.402;10.220;2023-04-16T13:09:25;14.63;;;11.43;;
11394;SDS011;5753;54.402;10.220;2023-04-16T13:11:54;15.32;;;10.45;;
11394;SDS011;5753;54.402;10.220;2023-04-16T13:14:20;16.23;;;11.48;;
11394;SDS011;5753;54.402;10.220;2023-04-16T13:16:46;19.80;;;11.52;;
11394;SDS011;5753;54.402;10.220;2023-04-16T13:19:13;12.48;;;10.95;;
11394;SDS011;5753;54.402;10.220;2023-04-16T13:21:40;13.32;;;11.23;;
11394;SDS011;5753;54.402;10.220;2023-04-16T13:24:06;12.00;;;9.93;;
11394;SDS011;5753;54.402;10.220;2023-04-16T13:26:32;11.98;;;10.75;;
11394;SDS011;5753;54.402;10.220;2023-04-16T13:28:59;23.52;;;9.52;;
11394;SDS011;5753;54.402;10.220;2023-04-16T13:31:25;14.50;;;9.68;;
11394;SDS011;5753;54.402;10.220;2023-04-16T13:33:52;14.60;;;10.98;;
11394;SDS011;5753;54.402;10.220;2023-04-16T13:36:19;13.32;;;9.52;;
11394;SDS011;5753;54.402;10.220;2023-04-16T13:38:45;11.60;;;9.43;;
11394;SDS011;5753;54.402;10.220;2023-04-16T13:41:11;17.52;;;11.68;;
11394;SDS011;5753;54.402;10.220;2023-04-16T13:43:37;12.95;;;10.77;;
11394;SDS011;5753;54.402;10.220;2023-04-16T13:46:07;13.45;;;10.38;;
11394;SDS011;5753;54.402;10.220;2023-04-16T13:48:36;14.57;;;11.00;;
11394;SDS011;5753;54.402;10.220;2023-04-16T13:51:03;15.30;;;9.60;;
11394;SDS011;5753;54.402;10.220;2023-04-16T13:53:29;13.75;;;10.85;;
11394;SDS011;5753;54.402;10.220;2023-04-16T13:55:55;12.90;;;11.55;;
11394;SDS011;5753;54.402;10.220;2023-04-16T13:58:39;12.82;;;10.43;;
11394;SDS011;5753;54.402;10.220;2023-04-16T14:01:08;16.35;;;10.20;;
11394;SDS011;5753;54.402;10.220;2023-04-16T14:03:38;16.35;;;11.35;;
11394;SDS011;5753;54.402;10.220;2023-04-16T14:06:08;13.20;;;9.68;;
11394;SDS011;5753;54.402;10.220;2023-04-16T14:08:36;12.57;;;8.73;;
11394;SDS011;5753;54.402;10.220;2023-04-16T14:11:10;10.68;;;9.10;;
11394;SDS011;5753;54.402;10.220;2023-04-16T14:13:37;13.68;;;10.85;;
11394;SDS011;5753;54.402;10.220;2023-04-16T14:16:11;16.83;;;12.45;;
11394;SDS011;5753;54.402;10.220;2023-04-16T14:18:42;14.65;;;12.23;;
11394;SDS011;5753;54.402;10.220;2023-04-16T14:21:09;16.45;;;10.02;;
11394;SDS011;5753;54.402;10.220;2023-04-16T14:23:35;13.57;;;9.40;;
11394;SDS011;5753;54.402;10.220;2023-04-16T14:26:02;13.15;;;11.75;;
11394;SDS011;5753;54.402;10.220;2023-04-16T14:28:30;14.65;;;10.82;;
11394;SDS011;5753;54.402;10.220;2023-04-16T14:30:58;17.67;;;10.93;;
11394;SDS011;5753;54.402;10.220;2023-04-16T14:33:25;12.68;;;9.63;;
11394;SDS011;5753;54.402;10.220;2023-04-16T14:35:53;16.42;;;10.82;;
11394;SDS011;5753;54.402;10.220;2023-04-16T14:38:20;11.88;;;10.50;;
11394;SDS011;5753;54.402;10.220;2023-04-16T14:40:47;12.90;;;9.82;;
11394;SDS011;5753;54.402;10.220;2023-04-16T14:43:13;13.30;;;10.32;;
11394;SDS011;5753;54.402;10.220;2023-04-16T14:45:40;13.55;;;11.85;;
11394;SDS011;5753;54.402;10.220;2023-04-16T14:48:06;13.75;;;11.05;;
11394;SDS011;5753;54.402;10.220;2023-04-16T14:50:33;17.55;;;13.38;;